createdAt,value
2023-05-20T00:02:22.856Z,98908.94
2023-05-20T00:04:50.638Z,98901.81
2023-05-20T00:07:18.263Z,98906.03
2023-05-20T00:09:46.237Z,98900.00
2023-05-20T00:12:13.803Z,98899.84
2023-05-20T00:14:41.128Z,98903.28
2023-05-20T00:17:08.707Z,98899.28
2023-05-20T00:19:36.050Z,98899.50
2023-05-20T00:22:03.698Z,98890.25
2023-05-20T00:24:31.147Z,98894.66
2023-05-20T00:26:58.737Z,98899.34
2023-05-20T00:29:26.015Z,98901.94
2023-05-20T00:31:53.715Z,98894.56
2023-05-20T00:34:21.271Z,98897.75
2023-05-20T00:36:48.827Z,98898.22
2023-05-20T00:39:16.178Z,98899.75
2023-05-20T00:41:43.706Z,98897.97
2023-05-20T00:44:10.969Z,98894.34
2023-05-20T00:46:39.215Z,98888.13
2023-05-20T00:49:06.893Z,98891.28
2023-05-20T00:51:34.760Z,98892.03
2023-05-20T00:54:02.446Z,98883.22
2023-05-20T00:56:30.444Z,98877.94
2023-05-20T00:58:58.719Z,98882.97
2023-05-20T01:01:26.614Z,98876.91
2023-05-20T01:03:54.191Z,98878.34
2023-05-20T01:06:21.866Z,98879.00
2023-05-20T01:08:49.294Z,98879.19
2023-05-20T01:11:31.712Z,98872.78
2023-05-20T01:14:07.862Z,98880.66
2023-05-20T01:16:38.878Z,98876.75
2023-05-20T01:19:38.591Z,98874.28
2023-05-20T01:22:12.562Z,98870.44
2023-05-20T01:24:53.641Z,98869.16
2023-05-20T01:27:23.674Z,98866.84
2023-05-20T01:29:53.026Z,98875.56
2023-05-20T01:32:37.551Z,98875.44
2023-05-20T01:35:07.441Z,98872.38
2023-05-20T01:37:41.467Z,98880.69
2023-05-20T01:40:11.826Z,98880.69
2023-05-20T01:42:41.793Z,98875.94
2023-05-20T01:45:09.776Z,98881.69
2023-05-20T01:47:37.491Z,98879.06
2023-05-20T01:50:05.426Z,98875.72
2023-05-20T01:52:33.905Z,98862.66
2023-05-20T01:55:01.689Z,98875.00
2023-05-20T01:57:29.386Z,98879.31
2023-05-20T01:59:56.679Z,98873.19
2023-05-20T02:02:24.364Z,98876.94
2023-05-20T02:04:54.460Z,98878.19
2023-05-20T02:07:22.172Z,98879.09
2023-05-20T02:09:49.471Z,98878.09
2023-05-20T02:12:17.312Z,98872.28
2023-05-20T02:14:46.529Z,98881.41
2023-05-20T02:17:16.613Z,98879.41
2023-05-20T02:19:46.009Z,98874.41
2023-05-20T02:22:15.022Z,98883.31
2023-05-20T02:24:43.631Z,98880.50
2023-05-20T02:27:11.410Z,98875.41
2023-05-20T02:29:38.842Z,98875.31
2023-05-20T02:32:06.966Z,98876.78
2023-05-20T02:34:34.338Z,98881.72
2023-05-20T02:37:01.907Z,98879.88
2023-05-20T02:39:29.186Z,98892.31
2023-05-20T02:41:57.118Z,98887.31
2023-05-20T02:44:24.562Z,98882.59
2023-05-20T02:46:52.448Z,98889.09
2023-05-20T02:49:19.832Z,98890.25
2023-05-20T02:51:47.455Z,98886.78
2023-05-20T02:54:14.769Z,98890.97
2023-05-20T02:56:42.496Z,98889.69
2023-05-20T02:59:09.829Z,98887.13
2023-05-20T03:01:37.478Z,98887.16
2023-05-20T03:04:04.957Z,98890.94
2023-05-20T03:06:32.659Z,98887.63
2023-05-20T03:08:59.972Z,98884.06
2023-05-20T03:11:27.622Z,98882.97
2023-05-20T03:13:54.985Z,98886.22
2023-05-20T03:16:23.209Z,98887.88
2023-05-20T03:18:50.830Z,98884.59
2023-05-20T03:21:18.503Z,98885.03
2023-05-20T03:23:45.779Z,98889.16
2023-05-20T03:26:13.499Z,98887.84
2023-05-20T03:28:40.877Z,98892.88
2023-05-20T03:31:08.470Z,98885.59
2023-05-20T03:33:36.150Z,98900.28
2023-05-20T03:36:03.962Z,98901.78
2023-05-20T03:38:31.275Z,98896.00
2023-05-20T03:40:58.827Z,98895.50
2023-05-20T03:43:27.277Z,98887.63
2023-05-20T03:45:54.920Z,98888.25
2023-05-20T03:48:22.327Z,98889.09
2023-05-20T03:50:50.226Z,98890.03
2023-05-20T03:53:17.750Z,98901.09
2023-05-20T03:55:45.571Z,98897.97
2023-05-20T03:58:13.803Z,98899.41
2023-05-20T04:00:42.191Z,98907.91
2023-05-20T04:03:10.561Z,98909.88
2023-05-20T04:05:38.554Z,98898.50
2023-05-20T04:08:06.104Z,98892.03
2023-05-20T04:10:33.902Z,98900.66
2023-05-20T04:13:01.509Z,98901.53
2023-05-20T04:15:29.920Z,98896.31
2023-05-20T04:17:57.385Z,98906.59
2023-05-20T04:20:25.087Z,98908.25
2023-05-20T04:22:52.574Z,98906.22
2023-05-20T04:25:20.706Z,98915.97
2023-05-20T04:27:48.451Z,98905.84
2023-05-20T04:30:19.982Z,98910.47
2023-05-20T04:32:48.390Z,98914.78
2023-05-20T04:35:16.406Z,98911.94
2023-05-20T04:37:47.809Z,98902.09
2023-05-20T04:40:15.815Z,98902.22
2023-05-20T04:42:44.969Z,98892.47
2023-05-20T04:45:13.779Z,98898.16
2023-05-20T04:47:42.029Z,98898.13
2023-05-20T04:50:11.380Z,98901.09
2023-05-20T04:52:39.515Z,98902.66
2023-05-20T04:55:12.166Z,98898.16
2023-05-20T04:57:42.955Z,98900.88
2023-05-20T05:00:12.693Z,98904.34
2023-05-20T05:02:40.412Z,98907.59
2023-05-20T05:05:08.902Z,98913.16
2023-05-20T05:07:36.699Z,98908.44
2023-05-20T05:10:05.331Z,98910.31
2023-05-20T05:12:32.718Z,98909.06
2023-05-20T05:15:00.758Z,98899.09
2023-05-20T05:17:29.037Z,98898.03
2023-05-20T05:19:56.901Z,98900.44
2023-05-20T05:22:24.300Z,98896.69
2023-05-20T05:24:52.427Z,98900.88
2023-05-20T05:27:19.767Z,98904.00
2023-05-20T05:29:47.335Z,98895.91
2023-05-20T05:32:14.676Z,98891.47
2023-05-20T05:34:42.340Z,98891.91
2023-05-20T05:37:09.734Z,98889.72
2023-05-20T05:39:37.918Z,98884.97
2023-05-20T05:42:06.074Z,98885.69
2023-05-20T05:44:33.765Z,98886.09
2023-05-20T05:47:01.167Z,98894.41
2023-05-20T05:49:28.778Z,98889.47
2023-05-20T05:51:56.116Z,98892.69
2023-05-20T05:54:23.750Z,98901.22
2023-05-20T05:56:54.611Z,98896.84
2023-05-20T05:59:22.874Z,98890.47
2023-05-20T06:01:50.333Z,98892.97
2023-05-20T06:04:18.105Z,98893.16
2023-05-20T06:06:45.447Z,98894.78
2023-05-20T06:09:13.132Z,98908.50
2023-05-20T06:11:42.378Z,98899.81
2023-05-20T06:14:10.019Z,98897.34
2023-05-20T06:16:37.483Z,98894.66
2023-05-20T06:19:05.789Z,98887.13
2023-05-20T06:21:33.364Z,98891.25
2023-05-20T06:24:00.968Z,98885.72
2023-05-20T06:26:28.322Z,98889.19
2023-05-20T06:28:56.084Z,98893.06
2023-05-20T06:31:23.659Z,98886.66
2023-05-20T06:33:51.501Z,98891.25
2023-05-20T06:36:18.804Z,98886.69
2023-05-20T06:38:46.411Z,98884.00
2023-05-20T06:41:13.772Z,98890.94
2023-05-20T06:43:41.423Z,98894.47
2023-05-20T06:46:08.751Z,98887.00
2023-05-20T06:48:36.348Z,98883.50
2023-05-20T06:51:04.325Z,98886.84
2023-05-20T06:53:31.865Z,98872.72
2023-05-20T06:55:59.129Z,98874.66
2023-05-20T06:58:26.762Z,98875.25
2023-05-20T07:00:54.183Z,98882.06
2023-05-20T07:03:21.764Z,98880.38
2023-05-20T07:05:51.051Z,98873.78
2023-05-20T07:08:18.648Z,98882.91
2023-05-20T07:10:46.833Z,98877.97
2023-05-20T07:13:14.480Z,98879.16
2023-05-20T07:15:41.860Z,98878.88
2023-05-20T07:18:09.463Z,98870.94
2023-05-20T07:20:36.784Z,98876.13
2023-05-20T07:23:04.350Z,98873.00
2023-05-20T07:25:31.725Z,98869.47
2023-05-20T07:28:00.717Z,98871.34
2023-05-20T07:30:28.189Z,98871.34
2023-05-20T07:32:55.869Z,98872.78
2023-05-20T07:35:24.632Z,98857.59
2023-05-20T07:37:52.396Z,98863.22
2023-05-20T07:40:19.771Z,98871.53
2023-05-20T07:42:47.316Z,98870.00
2023-05-20T07:45:14.595Z,98873.22
2023-05-20T07:47:43.632Z,98870.88
2023-05-20T07:50:11.522Z,98873.41
2023-05-20T07:52:54.666Z,98873.91
2023-05-20T07:55:24.110Z,98870.69
2023-05-20T07:57:52.094Z,98861.28
2023-05-20T08:00:19.662Z,98867.81
2023-05-20T08:02:47.528Z,98865.28
2023-05-20T08:05:15.048Z,98855.69
2023-05-20T08:07:42.616Z,98852.81
2023-05-20T08:10:10.518Z,98856.75
2023-05-20T08:12:38.350Z,98855.88
2023-05-20T08:15:06.676Z,98864.06
2023-05-20T08:17:35.266Z,98853.34
2023-05-20T08:20:02.725Z,98853.78
2023-05-20T08:22:30.426Z,98841.53
2023-05-20T08:24:57.755Z,98847.91
2023-05-20T08:27:25.523Z,98840.09
2023-05-20T08:29:52.829Z,98841.22
2023-05-20T08:32:20.446Z,98838.16
2023-05-20T08:34:49.406Z,98835.75
2023-05-20T08:37:17.167Z,98842.13
2023-05-20T08:39:46.723Z,98839.72
2023-05-20T08:42:14.468Z,98845.63
2023-05-20T08:44:42.751Z,98846.31
2023-05-20T08:47:11.457Z,98841.72
2023-05-20T08:49:39.429Z,98845.19
2023-05-20T08:52:09.970Z,98848.22
2023-05-20T08:54:46.575Z,98843.22
2023-05-20T08:57:14.407Z,98846.16
2023-05-20T08:59:47.193Z,98852.53
2023-05-20T09:02:16.072Z,98855.63
2023-05-20T09:04:43.631Z,98852.81
2023-05-20T09:07:11.273Z,98854.97
2023-05-20T09:09:38.609Z,98842.66
2023-05-20T09:12:06.868Z,98847.25
2023-05-20T09:14:34.333Z,98848.22
2023-05-20T09:17:08.497Z,98858.44
2023-05-20T09:19:36.896Z,98859.31
2023-05-20T09:22:05.437Z,98857.06
2023-05-20T09:24:33.027Z,98861.94
2023-05-20T09:27:01.106Z,98851.81
2023-05-20T09:29:28.454Z,98854.56
2023-05-20T09:31:57.030Z,98855.13
2023-05-20T09:34:24.430Z,98851.22
2023-05-20T09:36:54.006Z,98837.38
2023-05-20T09:39:34.058Z,98835.88
2023-05-20T09:42:10.881Z,98843.34
2023-05-20T09:44:39.371Z,98840.50
2023-05-20T09:47:08.762Z,98844.06
2023-05-20T09:49:38.164Z,98841.00
2023-05-20T09:52:06.312Z,98835.75
2023-05-20T09:54:36.533Z,98833.38
2023-05-20T09:57:08.321Z,98825.38
2023-05-20T09:59:38.640Z,98824.16
2023-05-20T10:02:07.322Z,98826.56
2023-05-20T10:04:45.002Z,98823.69
2023-05-20T10:07:20.904Z,98829.03
2023-05-20T10:10:45.400Z,98828.66
2023-05-20T10:13:28.391Z,98827.81
2023-05-20T10:16:42.862Z,98827.72
2023-05-20T10:19:31.302Z,98828.03
2023-05-20T10:22:04.436Z,98825.41
2023-05-20T10:24:38.304Z,98831.19
2023-05-20T10:27:15.842Z,98839.03
2023-05-20T10:29:59.938Z,98845.34
2023-05-20T10:32:33.312Z,98839.22
2023-05-20T10:35:10.214Z,98829.91
2023-05-20T10:37:51.116Z,98817.34
2023-05-20T10:40:23.327Z,98811.38
2023-05-20T10:42:51.071Z,98808.16
2023-05-20T10:45:32.894Z,98797.94
2023-05-20T10:48:00.501Z,98798.16
2023-05-20T10:50:36.681Z,98789.63
2023-05-20T10:53:09.394Z,98784.19
2023-05-20T10:55:47.689Z,98791.84
2023-05-20T10:58:15.415Z,98793.34
2023-05-20T11:00:44.183Z,98782.22
2023-05-20T11:03:14.858Z,98779.47
2023-05-20T11:05:42.927Z,98783.63
2023-05-20T11:08:20.639Z,98781.72
2023-05-20T11:10:58.167Z,98772.66
2023-05-20T11:13:26.409Z,98779.81
2023-05-20T11:15:55.624Z,98776.38
2023-05-20T11:18:23.023Z,98767.53
2023-05-20T11:20:51.306Z,98764.91
2023-05-20T11:23:19.376Z,98755.16
2023-05-20T11:25:47.049Z,98748.63
2023-05-20T11:28:14.854Z,98747.41
2023-05-20T11:30:46.176Z,98753.66
2023-05-20T11:33:16.972Z,98750.63
2023-05-20T11:35:54.475Z,98743.75
2023-05-20T11:38:22.407Z,98744.97
2023-05-20T11:40:55.819Z,98742.28
2023-05-20T11:43:24.602Z,98739.00
2023-05-20T11:46:00.030Z,98738.91
2023-05-20T11:48:27.737Z,98744.56
2023-05-20T11:50:57.115Z,98729.31
2023-05-20T11:53:25.435Z,98727.00
2023-05-20T11:55:56.417Z,98734.63
2023-05-20T11:58:26.861Z,98723.06
2023-05-20T12:01:01.752Z,98717.88
2023-05-20T12:03:37.562Z,98721.16
2023-05-20T12:06:05.583Z,98718.47
2023-05-20T12:08:32.935Z,98715.41
2023-05-20T12:11:00.598Z,98708.88
2023-05-20T12:13:27.989Z,98711.09
2023-05-20T12:15:55.762Z,98711.81
2023-05-20T12:18:23.238Z,98709.78
2023-05-20T12:20:51.067Z,98701.38
2023-05-20T12:23:18.430Z,98707.47
2023-05-20T12:25:47.443Z,98698.69
2023-05-20T12:28:14.822Z,98690.81
2023-05-20T12:30:42.790Z,98688.16
2023-05-20T12:33:10.563Z,98680.81
2023-05-20T12:35:43.748Z,98683.59
2023-05-20T12:38:29.728Z,98687.13
2023-05-20T12:40:57.454Z,98672.94
2023-05-20T12:43:24.785Z,98670.03
2023-05-20T12:45:52.996Z,98671.50
2023-05-20T12:48:20.646Z,98668.50
2023-05-20T12:50:49.835Z,98678.69
2023-05-20T12:53:17.175Z,98673.91
2023-05-20T12:55:44.927Z,98673.25
2023-05-20T12:58:12.310Z,98663.78
2023-05-20T13:00:40.079Z,98666.81
2023-05-20T13:03:07.707Z,98672.56
2023-05-20T13:05:35.445Z,98669.88
2023-05-20T13:08:04.491Z,98668.56
2023-05-20T13:10:33.275Z,98666.97
2023-05-20T13:13:00.780Z,98668.63
2023-05-20T13:15:28.435Z,98659.28
2023-05-20T13:17:56.099Z,98657.31
2023-05-20T13:20:25.111Z,98659.41
2023-05-20T13:22:52.857Z,98657.50
2023-05-20T13:25:20.674Z,98645.28
2023-05-20T13:27:48.020Z,98644.72
2023-05-20T13:30:15.693Z,98638.84
2023-05-20T13:32:43.065Z,98634.41
2023-05-20T13:35:10.974Z,98630.00
2023-05-20T13:37:38.261Z,98634.84
2023-05-20T13:40:06.839Z,98624.31
2023-05-20T13:42:34.202Z,98626.06
2023-05-20T13:45:01.893Z,98623.03
2023-05-20T13:47:29.315Z,98624.06
2023-05-20T13:49:56.972Z,98623.72
2023-05-20T13:52:24.255Z,98616.25
2023-05-20T13:54:52.008Z,98621.03
2023-05-20T13:57:21.121Z,98618.38
2023-05-20T13:59:48.730Z,98615.78
2023-05-20T14:02:16.337Z,98609.88
2023-05-20T14:04:45.101Z,98607.69
2023-05-20T14:07:13.012Z,98607.94
2023-05-20T14:09:41.140Z,98597.34
2023-05-20T14:12:09.644Z,98600.09
2023-05-20T14:14:37.345Z,98593.47
2023-05-20T14:17:04.876Z,98589.03
2023-05-20T14:19:32.617Z,98588.66
2023-05-20T14:22:01.367Z,98585.53
2023-05-20T14:24:29.520Z,98584.13
2023-05-20T14:26:57.175Z,98576.44
2023-05-20T14:29:24.898Z,98568.78
2023-05-20T14:31:52.312Z,98567.88
2023-05-20T14:34:19.991Z,98568.41
2023-05-20T14:36:47.670Z,98575.03
2023-05-20T14:39:15.428Z,98573.28
2023-05-20T14:41:42.672Z,98568.75
2023-05-20T14:44:10.239Z,98571.13
2023-05-20T14:46:37.571Z,98566.72
2023-05-20T14:49:05.928Z,98557.25
2023-05-20T14:51:33.172Z,98564.34
2023-05-20T14:54:01.031Z,98557.06
2023-05-20T14:56:28.490Z,98545.00
2023-05-20T14:58:56.239Z,98554.31
2023-05-20T15:01:23.527Z,98556.34
2023-05-20T15:03:51.119Z,98556.44
2023-05-20T15:06:18.733Z,98546.50
2023-05-20T15:08:46.399Z,98543.44
2023-05-20T15:11:13.757Z,98535.53
2023-05-20T15:13:41.368Z,98537.81
2023-05-20T15:16:08.755Z,98535.63
2023-05-20T15:18:36.339Z,98532.38
2023-05-20T15:21:04.214Z,98527.03
2023-05-20T15:23:31.811Z,98527.28
2023-05-20T15:25:59.217Z,98523.50
2023-05-20T15:28:26.871Z,98522.16
2023-05-20T15:30:56.584Z,98526.50
2023-05-20T15:33:24.345Z,98519.19
2023-05-20T15:35:51.967Z,98519.50
2023-05-20T15:38:19.471Z,98524.53
2023-05-20T15:40:47.538Z,98522.81
2023-05-20T15:43:15.178Z,98529.97
2023-05-20T15:45:42.704Z,98526.41
2023-05-20T15:48:10.465Z,98533.94
2023-05-20T15:50:38.343Z,98533.47
2023-05-20T15:53:10.043Z,98526.47
2023-05-20T15:55:37.395Z,98532.63
2023-05-20T15:58:04.948Z,98527.28
2023-05-20T16:00:32.671Z,98528.13
2023-05-20T16:03:00.759Z,98527.00
2023-05-20T16:05:28.231Z,98528.19
2023-05-20T16:07:57.100Z,98527.94
2023-05-20T16:10:26.166Z,98522.88
2023-05-20T16:12:53.839Z,98530.88
2023-05-20T16:15:21.100Z,98525.78
2023-05-20T16:17:48.833Z,98525.53
2023-05-20T16:20:16.347Z,98520.56
2023-05-20T16:22:43.950Z,98532.41
2023-05-20T16:25:11.423Z,98529.59
2023-05-20T16:27:39.071Z,98526.72
2023-05-20T16:30:09.110Z,98535.31
2023-05-20T16:32:36.727Z,98521.00
2023-05-20T16:35:05.061Z,98514.66
2023-05-20T16:37:33.159Z,98518.47
2023-05-20T16:40:00.821Z,98518.41
2023-05-20T16:42:28.506Z,98508.56
2023-05-20T16:44:55.920Z,98524.25
2023-05-20T16:47:23.608Z,98522.47
2023-05-20T16:49:51.017Z,98515.28
2023-05-20T16:52:18.656Z,98514.00
2023-05-20T16:54:46.096Z,98519.34
2023-05-20T16:57:16.051Z,98518.75
2023-05-20T16:59:43.452Z,98527.03
2023-05-20T17:02:11.140Z,98524.09
2023-05-20T17:04:38.463Z,98528.09
2023-05-20T17:07:09.843Z,98531.50
2023-05-20T17:09:37.616Z,98521.34
2023-05-20T17:12:06.091Z,98522.72
2023-05-20T17:14:33.480Z,98528.97
2023-05-20T17:17:01.328Z,98526.28
2023-05-20T17:19:28.752Z,98531.66
2023-05-20T17:21:56.370Z,98530.22
2023-05-20T17:24:23.632Z,98531.53
2023-05-20T17:26:51.362Z,98539.41
2023-05-20T17:29:18.752Z,98534.09
2023-05-20T17:31:46.503Z,98528.63
2023-05-20T17:34:13.947Z,98539.44
2023-05-20T17:36:41.597Z,98531.47
2023-05-20T17:39:09.840Z,98537.16
2023-05-20T17:41:38.175Z,98528.66
2023-05-20T17:44:05.909Z,98530.50
2023-05-20T17:46:33.545Z,98526.38
2023-05-20T17:49:01.140Z,98528.56
2023-05-20T17:51:28.755Z,98536.38
2023-05-20T17:53:56.044Z,98535.88
2023-05-20T17:56:23.712Z,98535.19
2023-05-20T17:58:51.017Z,98539.84
2023-05-20T18:01:18.664Z,98531.88
2023-05-20T18:03:46.395Z,98531.69
2023-05-20T18:06:14.284Z,98535.50
2023-05-20T18:08:42.599Z,98536.47
2023-05-20T18:11:10.695Z,98529.19
2023-05-20T18:13:38.047Z,98532.00
2023-05-20T18:16:06.638Z,98524.50
2023-05-20T18:18:34.099Z,98528.50
2023-05-20T18:21:01.686Z,98523.66
2023-05-20T18:23:28.991Z,98527.63
2023-05-20T18:25:56.607Z,98525.44
2023-05-20T18:28:23.931Z,98527.25
2023-05-20T18:30:51.576Z,98529.53
2023-05-20T18:33:18.930Z,98526.34
2023-05-20T18:35:46.703Z,98535.47
2023-05-20T18:38:14.026Z,98525.16
2023-05-20T18:40:41.617Z,98529.13
2023-05-20T18:43:08.912Z,98538.59
2023-05-20T18:45:36.601Z,98541.53
2023-05-20T18:48:05.262Z,98537.69
2023-05-20T18:50:33.143Z,98541.66
2023-05-20T18:53:00.595Z,98541.16
2023-05-20T18:55:28.394Z,98541.47
2023-05-20T18:57:55.812Z,98536.28
2023-05-20T19:00:23.981Z,98542.59
2023-05-20T19:02:51.335Z,98537.63
2023-05-20T19:05:20.046Z,98547.41
2023-05-20T19:07:47.389Z,98551.34
2023-05-20T19:10:15.568Z,98543.19
2023-05-20T19:12:43.691Z,98544.31
2023-05-20T19:15:11.723Z,98542.59
2023-05-20T19:17:40.444Z,98541.31
2023-05-20T19:20:09.027Z,98541.00
2023-05-20T19:22:36.606Z,98552.09
2023-05-20T19:25:05.703Z,98543.09
2023-05-20T19:27:33.004Z,98540.38
2023-05-20T19:30:00.703Z,98542.88
2023-05-20T19:32:28.133Z,98543.28
2023-05-20T19:34:55.999Z,98544.22
2023-05-20T19:37:23.445Z,98543.31
2023-05-20T19:39:51.044Z,98546.38
2023-05-20T19:42:18.494Z,98540.94
2023-05-20T19:44:46.770Z,98537.94
2023-05-20T19:47:14.197Z,98538.16
2023-05-20T19:49:41.806Z,98544.88
2023-05-20T19:52:09.076Z,98551.47
2023-05-20T19:54:36.752Z,98552.03
2023-05-20T19:57:04.285Z,98549.00
2023-05-20T19:59:32.907Z,98546.97
2023-05-20T20:02:03.089Z,98551.19
2023-05-20T20:04:30.950Z,98555.09
2023-05-20T20:06:58.727Z,98554.47
2023-05-20T20:09:26.480Z,98554.78
2023-05-20T20:11:54.400Z,98553.94
2023-05-20T20:14:22.684Z,98561.78
2023-05-20T20:16:51.019Z,98558.72
2023-05-20T20:19:27.505Z,98555.56
2023-05-20T20:21:58.941Z,98555.81
2023-05-20T20:24:26.690Z,98558.78
2023-05-20T20:26:54.455Z,98552.94
2023-05-20T20:29:22.733Z,98552.25
2023-05-20T20:31:50.106Z,98546.09
2023-05-20T20:34:18.229Z,98552.53
2023-05-20T20:36:47.315Z,98541.16
2023-05-20T20:39:25.281Z,98543.28
2023-05-20T20:41:52.775Z,98533.38
2023-05-20T20:44:23.612Z,98541.88
2023-05-20T20:46:51.871Z,98544.41
2023-05-20T20:49:20.915Z,98541.63
2023-05-20T20:51:49.953Z,98545.84
2023-05-20T20:54:17.664Z,98549.16
2023-05-20T20:56:47.206Z,98555.69
2023-05-20T20:59:16.047Z,98546.81
2023-05-20T21:01:44.888Z,98550.84
2023-05-20T21:04:14.083Z,98558.66
2023-05-20T21:06:47.689Z,98557.81
2023-05-20T21:09:16.250Z,98555.59
2023-05-20T21:11:45.454Z,98555.59
2023-05-20T21:14:13.489Z,98555.34
2023-05-20T21:16:42.287Z,98554.38
2023-05-20T21:19:10.048Z,98552.97
2023-05-20T21:21:37.453Z,98557.13
2023-05-20T21:24:05.555Z,98558.69
2023-05-20T21:26:32.936Z,98551.44
2023-05-20T21:29:00.579Z,98557.84
2023-05-20T21:31:28.067Z,98545.88
2023-05-20T21:33:55.919Z,98536.44
2023-05-20T21:36:23.278Z,98538.06
2023-05-20T21:38:50.944Z,98542.09
2023-05-20T21:41:18.336Z,98534.44
2023-05-20T21:43:46.094Z,98538.91
2023-05-20T21:46:13.720Z,98537.22
2023-05-20T21:48:41.443Z,98544.19
2023-05-20T21:51:08.707Z,98543.91
2023-05-20T21:53:36.301Z,98543.34
2023-05-20T21:56:03.820Z,98539.03
2023-05-20T21:58:31.600Z,98539.72
2023-05-20T22:00:58.976Z,98545.28
2023-05-20T22:03:27.219Z,98550.69
2023-05-20T22:05:55.517Z,98555.28
2023-05-20T22:08:23.116Z,98546.38
2023-05-20T22:10:50.744Z,98555.13
2023-05-20T22:13:20.719Z,98554.31
2023-05-20T22:15:48.157Z,98553.31
2023-05-20T22:18:15.837Z,98547.63
2023-05-20T22:20:43.442Z,98539.97
2023-05-20T22:23:11.230Z,98537.88
2023-05-20T22:25:38.573Z,98537.88
2023-05-20T22:28:06.214Z,98533.69
2023-05-20T22:30:33.538Z,98527.84
2023-05-20T22:33:01.537Z,98529.94
2023-05-20T22:35:28.960Z,98529.38
2023-05-20T22:37:57.411Z,98525.19
2023-05-20T22:40:24.720Z,98532.13
2023-05-20T22:42:53.052Z,98528.53
2023-05-20T22:45:20.480Z,98533.78
2023-05-20T22:47:48.042Z,98529.34
2023-05-20T22:50:15.469Z,98528.22
2023-05-20T22:52:43.175Z,98521.00
2023-05-20T22:55:11.797Z,98516.81
2023-05-20T22:57:39.345Z,98517.78
2023-05-20T23:00:08.081Z,98518.75
2023-05-20T23:02:35.719Z,98516.53
2023-05-20T23:05:04.249Z,98510.94
2023-05-20T23:07:32.118Z,98512.91
2023-05-20T23:09:59.459Z,98508.97
2023-05-20T23:12:27.094Z,98493.91
2023-05-20T23:14:54.439Z,98507.25
2023-05-20T23:17:22.122Z,98505.66
2023-05-20T23:19:49.387Z,98501.75
2023-05-20T23:22:17.438Z,98506.91
2023-05-20T23:24:45.054Z,98503.97
2023-05-20T23:27:12.593Z,98508.00
2023-05-20T23:29:40.474Z,98505.66
2023-05-20T23:32:08.323Z,98496.91
2023-05-20T23:34:35.930Z,98490.38
2023-05-20T23:37:03.643Z,98496.25
2023-05-20T23:39:30.914Z,98498.97
2023-05-20T23:41:58.555Z,98496.75
2023-05-20T23:44:25.808Z,98497.91
2023-05-20T23:46:53.818Z,98489.16
2023-05-20T23:49:24.523Z,98500.66
2023-05-20T23:51:52.965Z,98498.72
2023-05-20T23:54:20.431Z,98498.44
2023-05-20T23:56:48.018Z,98491.50
2023-05-20T23:59:15.776Z,98501.75
